createdAt,value
2024-02-04T00:02:21.508Z,5.41
2024-02-04T00:04:50.008Z,5.43
2024-02-04T00:07:17.551Z,5.55
2024-02-04T00:09:47.587Z,5.54
2024-02-04T00:12:15.290Z,5.53
2024-02-04T00:14:42.895Z,5.67
2024-02-04T00:17:10.184Z,5.62
2024-02-04T00:19:37.937Z,5.57
2024-02-04T00:22:05.385Z,5.52
2024-02-04T00:24:32.828Z,5.64
2024-02-04T00:27:00.585Z,5.58
2024-02-04T00:29:27.897Z,5.57
2024-02-04T00:31:55.216Z,5.28
2024-02-04T00:34:22.988Z,5.39
2024-02-04T00:36:50.330Z,5.43
2024-02-04T00:39:17.935Z,5.48
2024-02-04T00:41:45.569Z,5.52
2024-02-04T00:44:12.996Z,5.43
2024-02-04T00:46:40.307Z,5.47
2024-02-04T00:49:08.086Z,5.37
2024-02-04T00:51:35.692Z,5.57
2024-02-04T00:54:03.198Z,5.31
2024-02-04T00:56:31.354Z,5.50
2024-02-04T00:58:58.675Z,5.55
2024-02-04T01:01:26.866Z,5.69
2024-02-04T01:03:54.892Z,5.45
2024-02-04T01:06:22.310Z,5.65
2024-02-04T01:08:49.646Z,5.85
2024-02-04T01:11:17.368Z,5.60
2024-02-04T01:13:44.851Z,5.67
2024-02-04T01:16:12.245Z,5.64
2024-02-04T01:18:40.145Z,5.45
2024-02-04T01:21:07.569Z,5.73
2024-02-04T01:23:35.831Z,5.71
2024-02-04T01:26:03.574Z,5.80
2024-02-04T01:28:31.242Z,5.73
2024-02-04T01:30:58.594Z,5.91
2024-02-04T01:33:27.104Z,5.88
2024-02-04T01:35:54.548Z,5.81
2024-02-04T01:38:22.049Z,5.64
2024-02-04T01:40:52.603Z,5.89
2024-02-04T01:43:22.399Z,5.74
2024-02-04T01:45:53.720Z,5.68
2024-02-04T01:48:23.098Z,5.63
2024-02-04T01:50:54.403Z,5.95
2024-02-04T01:53:25.164Z,5.93
2024-02-04T01:55:53.765Z,6.00
2024-02-04T01:58:21.120Z,5.99
2024-02-04T02:00:51.063Z,5.95
2024-02-04T02:03:19.690Z,5.89
2024-02-04T02:05:47.681Z,5.92
2024-02-04T02:08:15.113Z,5.84
2024-02-04T02:10:47.930Z,5.79
2024-02-04T02:13:44.233Z,5.73
2024-02-04T02:16:23.058Z,5.95
2024-02-04T02:18:56.383Z,6.02
2024-02-04T02:21:52.278Z,5.89
2024-02-04T02:24:25.905Z,5.87
2024-02-04T02:26:54.481Z,5.70
2024-02-04T02:29:21.737Z,5.67
2024-02-04T02:31:49.679Z,5.51
2024-02-04T02:37:00.905Z,5.65
2024-02-04T02:39:47.015Z,5.65
2024-02-04T02:42:16.482Z,5.89
2024-02-04T02:44:45.740Z,5.73
2024-02-04T02:47:13.365Z,5.78
2024-02-04T02:49:40.858Z,5.77
2024-02-04T02:52:08.645Z,5.73
2024-02-04T02:54:35.978Z,5.73
2024-02-04T02:57:03.621Z,5.69
2024-02-04T02:59:32.153Z,5.69
2024-02-04T03:01:59.574Z,5.71
2024-02-04T03:04:27.113Z,5.76
2024-02-04T03:06:54.916Z,5.83
2024-02-04T03:09:22.396Z,5.87
2024-02-04T03:11:49.748Z,5.70
2024-02-04T03:14:18.324Z,5.55
2024-02-04T03:16:46.664Z,5.58
2024-02-04T03:19:14.209Z,5.61
2024-02-04T03:21:42.414Z,5.52
2024-02-04T03:24:10.044Z,5.53
2024-02-04T03:26:37.344Z,5.47
2024-02-04T03:29:06.242Z,5.19
2024-02-04T03:31:35.053Z,5.30
2024-02-04T03:34:02.916Z,5.26
2024-02-04T03:36:32.030Z,5.25
2024-02-04T03:38:59.449Z,5.28
2024-02-04T03:41:26.789Z,5.14
2024-02-04T03:43:56.433Z,4.99
2024-02-04T03:46:24.054Z,4.96
2024-02-04T03:48:51.628Z,5.25
2024-02-04T03:51:20.363Z,5.06
2024-02-04T03:53:49.296Z,5.13
2024-02-04T03:56:16.894Z,4.76
2024-02-04T03:58:45.289Z,4.76
2024-02-04T04:01:13.750Z,4.62
2024-02-04T04:03:43.210Z,4.70
2024-02-04T04:06:11.711Z,4.72
2024-02-04T04:08:39.649Z,4.51
2024-02-04T04:11:11.544Z,4.49
2024-02-04T04:13:39.977Z,4.52
2024-02-04T04:16:08.371Z,4.57
2024-02-04T04:18:35.998Z,4.62
2024-02-04T04:21:03.679Z,4.51
2024-02-04T04:23:31.768Z,4.50
2024-02-04T04:25:59.209Z,4.64
2024-02-04T04:28:26.703Z,4.60
2024-02-04T04:30:54.507Z,4.52
2024-02-04T04:33:22.181Z,4.41
2024-02-04T04:35:49.733Z,4.36
2024-02-04T04:38:17.616Z,4.38
2024-02-04T04:40:45.015Z,4.07
2024-02-04T04:43:12.478Z,4.03
2024-02-04T04:45:41.361Z,3.90
2024-02-04T04:48:11.753Z,3.81
2024-02-04T04:50:39.633Z,3.78
2024-02-04T04:53:07.786Z,3.70
2024-02-04T04:55:35.948Z,3.70
2024-02-04T04:58:04.696Z,3.91
2024-02-04T05:00:32.152Z,3.95
2024-02-04T05:02:59.732Z,3.94
2024-02-04T05:05:27.420Z,3.90
2024-02-04T05:07:55.050Z,4.46
2024-02-04T05:10:22.456Z,4.96
2024-02-04T05:12:51.436Z,5.14
2024-02-04T05:15:19.089Z,5.25
2024-02-04T05:17:46.755Z,5.43
2024-02-04T05:20:14.676Z,5.59
2024-02-04T05:22:41.934Z,5.60
2024-02-04T05:25:10.613Z,5.96
2024-02-04T05:27:42.333Z,5.96
2024-02-04T05:30:11.101Z,6.19
2024-02-04T05:32:40.226Z,6.41
2024-02-04T05:37:05.070Z,6.82
2024-02-04T05:39:33.046Z,6.82
2024-02-04T05:42:00.527Z,6.43
2024-02-04T05:44:28.911Z,6.24
2024-02-04T05:46:57.317Z,6.29
2024-02-04T05:49:25.682Z,6.36
2024-02-04T05:51:54.388Z,6.28
2024-02-04T05:54:22.811Z,6.38
2024-02-04T05:56:50.631Z,6.33
2024-02-04T05:59:18.810Z,6.58
2024-02-04T06:01:47.294Z,6.51
2024-02-04T06:04:16.764Z,6.61
2024-02-04T06:06:45.181Z,6.63
2024-02-04T06:09:12.659Z,6.82
2024-02-04T06:11:42.109Z,6.92
2024-02-04T06:14:10.636Z,6.91
2024-02-04T06:16:38.515Z,6.99
2024-02-04T06:19:10.993Z,6.95
2024-02-04T06:21:39.071Z,6.94
2024-02-04T06:24:06.994Z,6.98
2024-02-04T06:26:36.668Z,7.09
2024-02-04T06:29:05.158Z,6.96
2024-02-04T06:31:33.583Z,6.94
2024-02-04T06:34:02.728Z,7.00
2024-02-04T06:36:30.362Z,6.98
2024-02-04T06:38:59.551Z,7.12
2024-02-04T06:41:27.259Z,7.05
2024-02-04T06:43:55.040Z,7.06
2024-02-04T06:46:30.506Z,7.06
2024-02-04T06:49:01.007Z,7.21
2024-02-04T06:51:29.438Z,7.12
2024-02-04T06:53:58.774Z,7.04
2024-02-04T06:56:28.938Z,7.18
2024-02-04T06:58:56.977Z,7.24
2024-02-04T07:01:25.603Z,7.22
2024-02-04T07:04:01.869Z,7.26
2024-02-04T07:06:33.139Z,7.47
2024-02-04T07:09:04.423Z,7.67
2024-02-04T07:11:37.378Z,7.69
2024-02-04T07:14:05.826Z,7.69
2024-02-04T07:16:33.918Z,7.63
2024-02-04T07:19:04.275Z,7.63
2024-02-04T07:21:32.198Z,7.65
2024-02-04T07:24:00.575Z,7.53
2024-02-04T07:26:28.585Z,7.51
2024-02-04T07:28:56.882Z,7.62
2024-02-04T07:31:25.722Z,7.53
2024-02-04T07:33:53.533Z,7.78
2024-02-04T07:36:22.816Z,7.77
2024-02-04T07:38:52.199Z,7.63
2024-02-04T07:41:21.763Z,7.74
2024-02-04T07:43:53.191Z,7.77
2024-02-04T07:46:23.954Z,7.97
2024-02-04T07:48:52.434Z,7.85
2024-02-04T07:51:23.091Z,7.84
2024-02-04T07:53:51.550Z,7.90
2024-02-04T07:56:19.231Z,7.83
2024-02-04T07:58:47.985Z,7.75
2024-02-04T08:01:21.630Z,7.99
2024-02-04T08:03:50.318Z,7.91
2024-02-04T08:06:18.778Z,7.76
2024-02-04T08:08:51.992Z,7.67
2024-02-04T08:11:26.106Z,7.88
2024-02-04T08:13:56.287Z,7.84
2024-02-04T08:16:25.182Z,8.27
2024-02-04T08:18:54.249Z,8.28
2024-02-04T08:21:22.165Z,8.32
2024-02-04T08:23:50.612Z,8.33
2024-02-04T08:26:18.683Z,8.33
2024-02-04T08:28:46.366Z,8.29
2024-02-04T08:31:14.488Z,8.50
2024-02-04T08:33:46.045Z,8.53
2024-02-04T08:36:15.491Z,8.66
2024-02-04T08:38:45.084Z,8.60
2024-02-04T08:41:13.017Z,8.68
2024-02-04T08:43:42.242Z,8.85
2024-02-04T08:46:14.052Z,8.89
2024-02-04T08:48:46.727Z,8.86
2024-02-04T08:51:17.501Z,8.80
2024-02-04T08:53:47.911Z,8.88
2024-02-04T08:56:15.872Z,8.87
2024-02-04T08:58:47.447Z,8.92
2024-02-04T09:01:15.732Z,8.73
2024-02-04T09:03:48.180Z,8.73
2024-02-04T09:06:17.308Z,8.76
2024-02-04T09:08:45.372Z,8.87
2024-02-04T09:11:20.545Z,8.78
2024-02-04T09:13:50.048Z,8.83
2024-02-04T09:16:17.775Z,8.66
2024-02-04T09:18:49.003Z,8.79
2024-02-04T09:21:18.120Z,8.88
2024-02-04T09:23:47.141Z,8.84
2024-02-04T09:26:17.961Z,8.83
2024-02-04T09:28:48.643Z,8.77
2024-02-04T09:31:16.645Z,8.82
2024-02-04T09:33:45.432Z,8.73
2024-02-04T09:36:15.056Z,8.79
2024-02-04T09:38:45.054Z,8.70
2024-02-04T09:41:14.736Z,8.72
2024-02-04T09:43:43.372Z,8.57
2024-02-04T09:46:12.138Z,8.56
2024-02-04T09:48:42.234Z,8.48
2024-02-04T09:51:10.562Z,8.49
2024-02-04T09:53:44.761Z,8.56
2024-02-04T09:56:15.872Z,8.81
2024-02-04T09:58:45.230Z,8.73
2024-02-04T10:01:17.668Z,8.85
2024-02-04T10:03:51.281Z,8.95
2024-02-04T10:06:19.121Z,9.00
2024-02-04T10:08:49.549Z,8.92
2024-02-04T10:11:17.400Z,9.06
2024-02-04T10:13:49.897Z,9.07
2024-02-04T10:16:19.321Z,9.10
2024-02-04T10:18:47.537Z,9.08
2024-02-04T10:21:22.944Z,9.09
2024-02-04T10:23:52.165Z,9.02
2024-02-04T10:26:21.688Z,9.20
2024-02-04T10:28:50.813Z,9.18
2024-02-04T10:31:18.715Z,9.19
2024-02-04T10:33:46.657Z,9.26
2024-02-04T10:36:14.350Z,9.46
2024-02-04T10:38:42.328Z,9.53
2024-02-04T10:41:16.182Z,9.44
2024-02-04T10:43:45.367Z,9.66
2024-02-04T10:46:23.952Z,9.97
2024-02-04T10:49:00.862Z,10.19
2024-02-04T10:51:29.175Z,10.46
2024-02-04T10:53:57.974Z,10.19
2024-02-04T10:56:45.948Z,10.12
2024-02-04T10:59:20.817Z,9.78
2024-02-04T11:01:51.623Z,9.60
2024-02-04T11:04:20.949Z,9.59
2024-02-04T11:06:49.421Z,9.41
2024-02-04T11:09:18.923Z,9.44
2024-02-04T11:11:47.645Z,9.56
2024-02-04T11:14:20.344Z,9.59
2024-02-04T11:17:04.940Z,9.64
2024-02-04T11:19:55.368Z,9.76
2024-02-04T11:22:41.774Z,9.65
2024-02-04T11:25:16.672Z,9.76
2024-02-04T11:27:45.678Z,9.77
2024-02-04T11:30:13.547Z,9.70
2024-02-04T11:32:41.243Z,9.76
2024-02-04T11:35:10.074Z,9.74
2024-02-04T11:37:37.770Z,9.88
2024-02-04T11:40:08.700Z,9.93
2024-02-04T11:42:36.974Z,10.02
2024-02-04T11:45:09.209Z,9.98
2024-02-04T11:47:39.440Z,10.04
2024-02-04T11:50:08.785Z,9.93
2024-02-04T11:52:37.947Z,9.84
2024-02-04T11:55:08.812Z,9.74
2024-02-04T11:57:37.102Z,9.96
2024-02-04T12:00:07.335Z,10.09
2024-02-04T12:02:35.363Z,10.54
2024-02-04T12:05:04.561Z,11.08
2024-02-04T12:07:32.436Z,11.37
2024-02-04T12:10:00.529Z,11.55
2024-02-04T12:12:28.891Z,11.78
2024-02-04T12:14:56.569Z,11.79
2024-02-04T12:17:27.131Z,11.83
2024-02-04T12:19:55.357Z,11.93
2024-02-04T12:22:23.652Z,11.73
2024-02-04T12:24:51.583Z,11.90
2024-02-04T12:27:19.079Z,12.01
2024-02-04T12:29:46.639Z,11.69
2024-02-04T12:32:15.151Z,11.65
2024-02-04T12:34:43.596Z,11.38
2024-02-04T12:37:11.884Z,11.09
2024-02-04T12:39:40.658Z,11.10
2024-02-04T12:42:08.285Z,10.88
2024-02-04T12:44:35.745Z,11.06
2024-02-04T12:47:03.576Z,11.14
2024-02-04T12:49:32.099Z,11.33
2024-02-04T12:52:07.555Z,11.46
2024-02-04T12:54:45.430Z,11.66
2024-02-04T12:57:27.256Z,12.11
2024-02-04T13:00:07.880Z,12.41
2024-02-04T13:02:35.939Z,12.71
2024-02-04T13:05:04.116Z,12.64
2024-02-04T13:07:31.755Z,12.94
2024-02-04T13:10:01.503Z,12.88
2024-02-04T13:12:29.500Z,12.89
2024-02-04T13:14:57.205Z,12.65
2024-02-04T13:17:24.641Z,12.84
2024-02-04T13:19:52.774Z,12.86
2024-02-04T13:22:20.505Z,13.23
2024-02-04T13:24:48.016Z,13.33
2024-02-04T13:27:16.483Z,13.57
2024-02-04T13:29:44.831Z,13.26
2024-02-04T13:32:14.004Z,12.71
2024-02-04T13:34:42.096Z,12.65
2024-02-04T13:37:10.649Z,12.46
2024-02-04T13:39:38.191Z,11.49
2024-02-04T13:42:07.152Z,11.24
2024-02-04T13:44:34.958Z,10.86
2024-02-04T13:47:06.257Z,10.91
2024-02-04T13:49:35.103Z,10.95
2024-02-04T13:52:02.661Z,11.27
2024-02-04T13:54:30.301Z,12.08
2024-02-04T13:56:58.407Z,12.17
2024-02-04T13:59:26.686Z,12.03
2024-02-04T14:01:58.356Z,12.03
2024-02-04T14:04:28.380Z,12.19
2024-02-04T14:06:55.956Z,11.68
2024-02-04T14:09:23.476Z,11.23
2024-02-04T14:11:51.223Z,11.33
2024-02-04T14:14:19.674Z,12.15
2024-02-04T14:16:48.542Z,12.53
2024-02-04T14:19:16.390Z,12.87
2024-02-04T14:21:44.122Z,12.83
2024-02-04T14:24:11.672Z,13.22
2024-02-04T14:26:39.594Z,12.76
2024-02-04T14:29:07.089Z,12.08
2024-02-04T14:31:35.001Z,11.90
2024-02-04T14:34:03.464Z,11.67
2024-02-04T14:36:31.719Z,11.49
2024-02-04T14:38:59.145Z,11.45
2024-02-04T14:41:28.567Z,11.00
2024-02-04T14:43:56.275Z,10.68
2024-02-04T14:46:24.059Z,10.70
2024-02-04T14:51:21.381Z,10.41
2024-02-04T14:53:49.074Z,10.37
2024-02-04T14:56:17.439Z,10.24
2024-02-04T14:58:45.408Z,10.13
2024-02-04T15:01:13.773Z,10.18
2024-02-04T15:03:42.395Z,9.85
2024-02-04T15:06:09.883Z,9.87
2024-02-04T15:08:37.302Z,9.74
2024-02-04T15:11:05.450Z,9.71
2024-02-04T15:13:34.413Z,9.86
2024-02-04T15:16:03.073Z,9.78
2024-02-04T15:18:32.792Z,9.73
2024-02-04T15:21:00.880Z,9.62
2024-02-04T15:23:28.744Z,9.66
2024-02-04T15:25:57.237Z,9.50
2024-02-04T15:28:26.178Z,9.43
2024-02-04T15:30:54.157Z,9.55
2024-02-04T15:33:22.556Z,9.44
2024-02-04T15:35:50.105Z,9.35
2024-02-04T15:38:18.872Z,9.49
2024-02-04T15:40:47.356Z,9.59
2024-02-04T15:43:15.771Z,9.67
2024-02-04T15:45:43.775Z,9.49
2024-02-04T15:48:15.920Z,9.27
2024-02-04T15:50:43.923Z,9.25
2024-02-04T15:53:13.284Z,9.44
2024-02-04T15:55:41.453Z,9.46
2024-02-04T15:58:09.674Z,9.24
2024-02-04T16:00:37.780Z,9.31
2024-02-04T16:03:05.963Z,9.23
2024-02-04T16:05:37.665Z,9.31
2024-02-04T16:08:05.987Z,9.23
2024-02-04T16:10:33.938Z,9.35
2024-02-04T16:13:04.102Z,9.26
2024-02-04T16:15:32.392Z,9.02
2024-02-04T16:18:01.227Z,9.02
2024-02-04T16:20:30.889Z,9.07
2024-02-04T16:22:59.646Z,9.07
2024-02-04T16:25:31.411Z,9.04
2024-02-04T16:28:00.901Z,8.96
2024-02-04T16:30:28.502Z,8.85
2024-02-04T16:32:56.264Z,8.89
2024-02-04T16:35:24.439Z,8.76
2024-02-04T16:37:52.179Z,8.67
2024-02-04T16:40:19.855Z,8.70
2024-02-04T16:42:47.655Z,8.58
2024-02-04T16:45:15.101Z,8.58
2024-02-04T16:47:43.347Z,8.43
2024-02-04T16:50:11.529Z,8.38
2024-02-04T16:52:39.552Z,8.12
2024-02-04T16:55:07.624Z,8.19
2024-02-04T16:57:37.216Z,8.12
2024-02-04T17:00:09.647Z,8.02
2024-02-04T17:02:37.478Z,7.94
2024-02-04T17:05:05.734Z,7.85
2024-02-04T17:07:33.546Z,7.62
2024-02-04T17:10:02.356Z,7.73
2024-02-04T17:12:30.691Z,7.50
2024-02-04T17:14:58.947Z,7.37
2024-02-04T17:17:27.499Z,7.43
2024-02-04T17:20:13.200Z,7.22
2024-02-04T17:22:45.877Z,7.30
2024-02-04T17:25:19.358Z,7.12
2024-02-04T17:27:48.686Z,7.08
2024-02-04T17:30:17.376Z,7.19
2024-02-04T17:32:49.293Z,6.96
2024-02-04T17:35:20.668Z,6.83
2024-02-04T17:37:49.698Z,6.62
2024-02-04T17:40:18.728Z,6.48
2024-02-04T17:42:46.697Z,6.36
2024-02-04T17:45:14.746Z,6.26
2024-02-04T17:47:44.601Z,6.32
2024-02-04T17:50:13.271Z,6.24
2024-02-04T17:52:42.783Z,6.31
2024-02-04T17:55:11.699Z,6.25
2024-02-04T17:57:39.540Z,6.26
2024-02-04T18:00:11.721Z,5.91
2024-02-04T18:02:46.688Z,5.78
2024-02-04T18:05:19.364Z,5.68
2024-02-04T18:07:50.359Z,5.78
2024-02-04T18:10:18.197Z,5.93
2024-02-04T18:12:45.996Z,5.60
2024-02-04T18:15:14.650Z,5.55
2024-02-04T18:17:44.469Z,5.62
2024-02-04T18:20:13.566Z,5.62
2024-02-04T18:22:41.850Z,5.36
2024-02-04T18:25:12.882Z,5.29
2024-02-04T18:27:43.445Z,5.26
2024-02-04T18:30:12.676Z,5.14
2024-02-04T18:32:41.500Z,5.09
2024-02-04T18:35:10.231Z,5.60
2024-02-04T18:37:38.198Z,5.59
2024-02-04T18:40:08.632Z,5.91
2024-02-04T18:42:37.889Z,6.26
2024-02-04T18:45:08.635Z,6.59
2024-02-04T18:47:36.827Z,6.97
2024-02-04T18:50:04.740Z,7.16
2024-02-04T18:52:35.061Z,7.36
2024-02-04T18:55:04.949Z,7.56
2024-02-04T18:57:35.072Z,7.82
2024-02-04T19:00:03.876Z,7.77
2024-02-04T19:02:32.720Z,7.64
2024-02-04T19:05:02.686Z,7.93
2024-02-04T19:07:31.639Z,7.92
2024-02-04T19:09:59.873Z,7.95
2024-02-04T19:12:28.228Z,7.83
2024-02-04T19:14:55.671Z,7.86
2024-02-04T19:17:23.333Z,7.93
2024-02-04T19:19:51.137Z,7.77
2024-02-04T19:22:18.676Z,7.87
2024-02-04T19:24:46.277Z,7.85
2024-02-04T19:27:14.615Z,7.99
2024-02-04T19:29:42.144Z,7.85
2024-02-04T19:32:09.544Z,7.85
2024-02-04T19:34:38.993Z,7.86
2024-02-04T19:37:06.658Z,8.11
2024-02-04T19:39:34.288Z,7.93
2024-02-04T19:42:02.436Z,8.09
2024-02-04T19:44:29.863Z,8.01
2024-02-04T19:46:57.273Z,8.17
2024-02-04T19:49:28.396Z,8.03
2024-02-04T19:51:57.715Z,7.86
2024-02-04T19:54:25.744Z,7.85
2024-02-04T19:56:53.414Z,7.86
2024-02-04T19:59:20.875Z,7.92
2024-02-04T20:01:50.471Z,7.93
2024-02-04T20:04:19.702Z,7.93
2024-02-04T20:06:48.357Z,7.83
2024-02-04T20:09:17.351Z,7.94
2024-02-04T20:11:45.288Z,7.82
2024-02-04T20:14:12.777Z,7.99
2024-02-04T20:16:40.825Z,7.90
2024-02-04T20:19:08.929Z,8.00
2024-02-04T20:21:36.664Z,7.95
2024-02-04T20:24:04.665Z,8.01
2024-02-04T20:26:33.165Z,7.88
2024-02-04T20:29:00.618Z,7.81
2024-02-04T20:31:28.043Z,8.03
2024-02-04T20:33:55.898Z,7.94
2024-02-04T20:36:23.475Z,8.07
2024-02-04T20:38:51.039Z,8.08
2024-02-04T20:41:19.888Z,8.01
2024-02-04T20:43:47.395Z,7.93
2024-02-04T20:46:14.932Z,8.07
2024-02-04T20:48:42.805Z,7.89
2024-02-04T20:51:11.406Z,8.04
2024-02-04T20:53:39.333Z,8.03
2024-02-04T20:56:07.157Z,8.07
2024-02-04T20:58:39.829Z,7.88
2024-02-04T21:01:08.282Z,7.88
2024-02-04T21:03:36.370Z,7.88
2024-02-04T21:06:04.023Z,7.73
2024-02-04T21:08:31.854Z,7.85
2024-02-04T21:10:59.620Z,7.76
2024-02-04T21:13:27.314Z,7.78
2024-02-04T21:15:55.197Z,7.94
2024-02-04T21:18:22.960Z,7.91
2024-02-04T21:20:50.456Z,7.84
2024-02-04T21:23:19.577Z,7.73
2024-02-04T21:25:47.025Z,7.64
2024-02-04T21:28:14.933Z,7.67
2024-02-04T21:30:42.752Z,7.53
2024-02-04T21:33:10.261Z,7.40
2024-02-04T21:35:38.047Z,7.39
2024-02-04T21:38:05.821Z,7.38
2024-02-04T21:40:33.304Z,7.39
2024-02-04T21:43:01.552Z,7.24
2024-02-04T21:45:29.366Z,7.38
2024-02-04T21:47:56.930Z,7.28
2024-02-04T21:50:24.529Z,6.81
2024-02-04T21:52:52.422Z,6.61
2024-02-04T21:55:20.075Z,6.32
2024-02-04T21:57:47.540Z,6.06
2024-02-04T22:00:15.658Z,6.19
2024-02-04T22:02:43.473Z,6.29
2024-02-04T22:05:10.901Z,6.15
2024-02-04T22:07:38.451Z,5.75
2024-02-04T22:10:09.969Z,5.73
2024-02-04T22:12:38.028Z,5.49
2024-02-04T22:15:09.252Z,5.57
2024-02-04T22:17:40.138Z,5.57
2024-02-04T22:20:10.297Z,5.65
2024-02-04T22:22:37.888Z,5.48
2024-02-04T22:25:05.570Z,5.23
2024-02-04T22:27:34.310Z,5.18
2024-02-04T22:30:03.984Z,5.02
2024-02-04T22:32:32.244Z,4.98
2024-02-04T22:35:00.191Z,4.91
2024-02-04T22:37:27.762Z,4.92
2024-02-04T22:39:55.104Z,4.94
2024-02-04T22:42:22.914Z,4.70
2024-02-04T22:44:50.206Z,4.76
2024-02-04T22:47:19.295Z,4.84
2024-02-04T22:49:46.951Z,4.88
2024-02-04T22:52:15.603Z,4.82
2024-02-04T22:54:43.586Z,4.54
2024-02-04T22:57:11.314Z,4.69
2024-02-04T22:59:38.617Z,4.29
2024-02-04T23:02:07.953Z,4.24
2024-02-04T23:04:38.786Z,4.18
2024-02-04T23:07:07.868Z,4.00
2024-02-04T23:09:35.743Z,4.14
2024-02-04T23:12:03.189Z,4.08
2024-02-04T23:14:30.779Z,3.91
2024-02-04T23:16:58.923Z,3.89
2024-02-04T23:19:26.576Z,3.51
2024-02-04T23:21:54.216Z,3.72
2024-02-04T23:24:21.932Z,3.88
2024-02-04T23:26:49.918Z,3.78
2024-02-04T23:29:17.178Z,3.80
2024-02-04T23:31:44.818Z,3.67
2024-02-04T23:34:12.209Z,3.91
2024-02-04T23:36:39.688Z,3.61
2024-02-04T23:39:08.113Z,3.61
2024-02-04T23:41:35.396Z,3.35
2024-02-04T23:44:02.766Z,3.40
2024-02-04T23:46:30.373Z,3.41
2024-02-04T23:48:57.697Z,3.47
2024-02-04T23:51:25.209Z,3.35
2024-02-04T23:53:53.276Z,3.30
2024-02-04T23:56:20.605Z,3.38
2024-02-04T23:58:48.041Z,3.25
